createdAt,value
2022-08-17T00:00:42.878Z,10.83
2022-08-17T00:08:57.306Z,9.27
2022-08-17T00:16:57.130Z,10.60
2022-08-17T00:24:30.871Z,10.63
2022-08-17T00:33:10.958Z,10.23
2022-08-17T00:40:00.677Z,9.63
2022-08-17T00:47:36.157Z,9.85
2022-08-17T00:55:11.436Z,11.02
2022-08-17T01:02:48.905Z,10.05
2022-08-17T01:10:58.300Z,9.80
2022-08-17T01:18:22.560Z,9.70
2022-08-17T01:26:01.499Z,10.13
2022-08-17T01:33:35.380Z,10.30
2022-08-17T01:41:13.188Z,10.07
2022-08-17T01:48:47.659Z,10.30
2022-08-17T01:56:25.604Z,9.68
2022-08-17T02:04:01.621Z,9.38
2022-08-17T02:11:39.224Z,9.13
2022-08-17T02:19:15.998Z,10.65
2022-08-17T02:26:51.441Z,9.88
2022-08-17T02:34:25.603Z,9.10
2022-08-17T02:42:04.337Z,10.43
2022-08-17T02:49:38.916Z,10.00
2022-08-17T02:57:14.307Z,12.10
2022-08-17T03:04:48.168Z,9.32
2022-08-17T03:12:23.653Z,10.35
2022-08-17T03:19:57.381Z,9.60
2022-08-17T03:27:32.687Z,9.93
2022-08-17T03:35:07.738Z,8.82
2022-08-17T03:50:33.702Z,10.18
2022-08-17T03:58:08.777Z,9.27
2022-08-17T04:13:24.727Z,9.35
2022-08-17T04:20:59.431Z,10.43
2022-08-17T04:28:35.332Z,10.57
2022-08-17T04:36:09.753Z,10.52
2022-08-17T04:43:46.867Z,10.23
2022-08-17T04:51:23.925Z,10.48
2022-08-17T04:59:01.499Z,10.25
2022-08-17T05:06:35.625Z,10.52
2022-08-17T05:14:10.806Z,10.90
2022-08-17T05:21:44.792Z,11.98
2022-08-17T05:29:20.277Z,11.13
2022-08-17T05:36:54.063Z,11.48
2022-08-17T05:44:29.209Z,11.75
2022-08-17T05:52:21.934Z,11.45
2022-08-17T06:00:04.640Z,11.70
2022-08-17T06:07:46.950Z,12.43
2022-08-17T06:15:31.421Z,13.70
2022-08-17T06:23:09.353Z,13.00
2022-08-17T06:30:59.161Z,12.05
2022-08-17T06:38:45.485Z,12.20
2022-08-17T06:46:28.140Z,10.83
2022-08-17T06:54:09.027Z,9.65
2022-08-17T07:01:47.183Z,8.52
2022-08-17T07:09:28.126Z,8.50
2022-08-17T07:17:10.224Z,7.93
2022-08-17T07:24:51.564Z,7.90
2022-08-17T07:32:31.906Z,7.57
2022-08-17T07:40:21.309Z,7.20
2022-08-17T07:48:15.866Z,6.80
2022-08-17T07:55:50.509Z,6.10
2022-08-17T08:03:27.344Z,6.03
2022-08-17T08:11:07.302Z,6.07
2022-08-17T08:18:56.052Z,6.47
2022-08-17T08:26:38.659Z,6.30
2022-08-17T08:34:53.257Z,6.53
2022-08-17T08:42:26.103Z,6.50
2022-08-17T08:50:30.129Z,6.50
2022-08-17T08:58:32.050Z,6.30
2022-08-17T09:06:28.725Z,6.50
2022-08-17T09:14:21.674Z,5.85
2022-08-17T09:22:17.506Z,5.78
2022-08-17T09:29:57.776Z,4.55
2022-08-17T09:37:44.163Z,3.83
2022-08-17T09:45:29.082Z,4.80
2022-08-17T09:53:04.422Z,4.80
2022-08-17T10:00:45.294Z,5.22
2022-08-17T10:08:28.809Z,5.13
2022-08-17T10:16:08.045Z,4.75
2022-08-17T10:24:03.089Z,5.03
2022-08-17T10:31:51.896Z,4.85
2022-08-17T10:39:52.721Z,4.60
2022-08-17T10:48:04.766Z,5.40
2022-08-17T10:56:16.449Z,4.57
2022-08-17T11:03:54.952Z,5.10
2022-08-17T11:11:52.858Z,4.53
2022-08-17T11:20:18.767Z,4.45
2022-08-17T11:35:50.978Z,4.82
2022-08-17T11:43:56.616Z,4.63
2022-08-17T11:51:58.429Z,4.35
2022-08-17T11:59:58.658Z,4.57
2022-08-17T12:07:36.107Z,4.55
2022-08-17T12:15:18.397Z,4.32
2022-08-17T12:23:01.419Z,4.10
2022-08-17T12:30:37.773Z,3.78
2022-08-17T12:38:30.379Z,3.85
2022-08-17T12:46:18.300Z,3.97
2022-08-17T12:53:55.883Z,4.05
2022-08-17T13:01:35.198Z,4.78
2022-08-17T13:09:11.800Z,4.13
2022-08-17T13:16:53.207Z,4.47
2022-08-17T13:24:30.169Z,4.18
2022-08-17T13:32:20.536Z,3.97
2022-08-17T13:39:55.390Z,4.05
2022-08-17T13:47:31.056Z,4.72
2022-08-17T13:55:09.510Z,4.90
2022-08-17T14:02:44.637Z,4.25
2022-08-17T14:10:19.918Z,4.70
2022-08-17T14:17:55.372Z,4.45
2022-08-17T14:25:30.607Z,4.38
2022-08-17T14:33:05.965Z,4.32
2022-08-17T14:40:40.252Z,4.60
2022-08-17T14:48:15.921Z,5.22
2022-08-17T14:55:51.678Z,5.00
2022-08-17T15:03:26.988Z,4.45
2022-08-17T15:11:03.058Z,4.30
2022-08-17T15:18:38.379Z,5.18
2022-08-17T15:26:12.377Z,4.85
2022-08-17T15:41:21.352Z,5.35
2022-08-17T15:48:59.708Z,4.78
2022-08-17T15:56:33.851Z,5.18
2022-08-17T16:04:26.746Z,4.75
2022-08-17T16:12:11.055Z,5.00
2022-08-17T16:19:46.867Z,5.28
2022-08-17T16:27:20.785Z,4.90
2022-08-17T16:34:56.228Z,5.00
2022-08-17T16:42:32.744Z,6.10
2022-08-17T16:50:12.249Z,7.57
2022-08-17T16:57:49.906Z,13.02
2022-08-17T17:05:38.828Z,7.05
2022-08-17T17:13:19.151Z,7.03
2022-08-17T17:20:57.912Z,10.32
2022-08-17T17:28:40.510Z,7.13
2022-08-17T17:36:25.471Z,8.77
2022-08-17T17:44:03.897Z,9.15
2022-08-17T17:52:08.044Z,7.07
2022-08-17T17:59:50.777Z,7.75
2022-08-17T18:07:35.183Z,6.25
2022-08-17T18:15:26.090Z,6.53
2022-08-17T18:23:06.652Z,6.10
2022-08-17T18:30:40.614Z,6.30
2022-08-17T18:38:22.683Z,6.55
2022-08-17T18:45:58.627Z,6.72
2022-08-17T18:53:37.711Z,6.93
2022-08-17T19:01:20.337Z,7.13
2022-08-17T19:08:56.988Z,7.45
2022-08-17T19:16:36.637Z,8.00
2022-08-17T19:24:19.355Z,8.32
2022-08-17T19:31:55.792Z,8.70
2022-08-17T19:39:41.856Z,7.80
2022-08-17T19:47:50.862Z,7.80
2022-08-17T19:55:31.584Z,8.55
2022-08-17T20:03:16.314Z,9.13
2022-08-17T20:10:56.590Z,8.35
2022-08-17T20:18:37.732Z,8.13
2022-08-17T20:26:21.621Z,8.65
2022-08-17T20:33:55.567Z,8.73
2022-08-17T20:41:31.744Z,9.67
2022-08-17T20:49:22.041Z,8.07
2022-08-17T20:57:00.988Z,9.27
2022-08-17T21:04:47.398Z,8.73
2022-08-17T21:12:42.493Z,8.50
2022-08-17T21:20:33.102Z,9.65
2022-08-17T21:28:18.248Z,8.60
2022-08-17T21:36:15.650Z,9.90
2022-08-17T21:43:52.899Z,9.68
2022-08-17T21:51:29.085Z,9.40
2022-08-17T21:59:08.053Z,9.50
2022-08-17T22:06:56.639Z,10.02
2022-08-17T22:14:53.272Z,9.32
2022-08-17T22:22:34.710Z,9.25
2022-08-17T22:30:19.867Z,9.60
2022-08-17T22:37:53.995Z,9.52
2022-08-17T22:45:31.235Z,9.50
2022-08-17T22:53:33.986Z,9.90
2022-08-17T23:01:25.585Z,9.60
2022-08-17T23:08:59.584Z,9.70
2022-08-17T23:16:34.686Z,10.23
2022-08-17T23:24:10.073Z,9.80
2022-08-17T23:31:45.229Z,9.27
2022-08-17T23:39:27.484Z,9.52
2022-08-17T23:47:04.903Z,9.75
2022-08-17T23:54:43.643Z,10.02
